createdAt,value
2018-09-04T00:01:37.449Z,16.90
2018-09-04T00:04:06.102Z,16.80
2018-09-04T00:06:34.587Z,15.93
2018-09-04T00:09:03.256Z,16.10
2018-09-04T00:11:31.733Z,18.03
2018-09-04T00:14:00.197Z,16.03
2018-09-04T00:16:28.701Z,20.07
2018-09-04T00:18:57.198Z,16.33
2018-09-04T00:21:25.700Z,15.67
2018-09-04T00:23:54.178Z,16.10
2018-09-04T00:26:22.652Z,16.60
2018-09-04T00:28:51.136Z,17.40
2018-09-04T00:31:19.632Z,14.80
2018-09-04T00:33:48.105Z,14.57
2018-09-04T00:36:16.589Z,16.23
2018-09-04T00:38:45.091Z,16.60
2018-09-04T00:41:13.596Z,16.20
2018-09-04T00:43:42.066Z,18.17
2018-09-04T00:46:10.574Z,15.43
2018-09-04T00:48:39.027Z,16.77
2018-09-04T00:51:07.605Z,15.70
2018-09-04T00:53:36.097Z,15.60
2018-09-04T00:56:06.146Z,15.07
2018-09-04T00:58:34.617Z,19.37
2018-09-04T01:01:03.127Z,17.27
2018-09-04T01:03:32.672Z,18.07
2018-09-04T01:06:01.727Z,15.07
2018-09-04T01:08:43.809Z,16.83
2018-09-04T01:11:12.297Z,17.10
2018-09-04T01:13:42.513Z,16.07
2018-09-04T01:16:10.965Z,15.77
2018-09-04T01:18:39.460Z,15.27
2018-09-04T01:21:08.250Z,16.83
2018-09-04T01:23:36.720Z,14.53
2018-09-04T01:26:05.198Z,16.40
2018-09-04T01:28:33.757Z,16.57
2018-09-04T01:31:02.247Z,15.53
2018-09-04T01:33:30.745Z,16.73
2018-09-04T01:35:59.225Z,16.53
2018-09-04T01:38:27.770Z,16.97
2018-09-04T01:40:56.233Z,16.37
2018-09-04T01:43:24.717Z,17.03
2018-09-04T01:45:53.192Z,16.33
2018-09-04T01:48:21.673Z,14.97
2018-09-04T01:50:50.131Z,15.33
2018-09-04T01:53:18.613Z,15.90
2018-09-04T01:55:47.068Z,15.80
2018-09-04T01:58:15.561Z,16.90
2018-09-04T02:00:44.024Z,15.77
2018-09-04T02:03:12.538Z,14.97
2018-09-04T02:05:41.004Z,14.87
2018-09-04T02:08:09.546Z,14.77
2018-09-04T02:10:38.012Z,14.23
2018-09-04T02:13:06.500Z,15.63
2018-09-04T02:15:35.017Z,15.37
2018-09-04T02:18:03.521Z,14.63
2018-09-04T02:20:31.980Z,15.20
2018-09-04T02:23:00.508Z,14.63
2018-09-04T02:25:28.977Z,15.47
2018-09-04T02:27:57.467Z,14.33
2018-09-04T02:30:25.945Z,13.73
2018-09-04T02:32:54.452Z,15.60
2018-09-04T02:35:22.916Z,16.37
2018-09-04T02:37:51.424Z,15.73
2018-09-04T02:40:19.902Z,16.10
2018-09-04T02:42:48.424Z,16.57
2018-09-04T02:45:16.885Z,16.20
2018-09-04T02:47:45.376Z,16.20
2018-09-04T02:50:14.391Z,15.87
2018-09-04T02:52:42.881Z,15.27
2018-09-04T02:55:11.748Z,15.33
2018-09-04T02:57:40.208Z,17.50
2018-09-04T03:00:09.027Z,16.67
2018-09-04T03:02:37.512Z,17.73
2018-09-04T03:05:06.017Z,17.03
2018-09-04T03:07:34.546Z,16.47
2018-09-04T03:10:03.901Z,16.47
2018-09-04T03:12:32.382Z,16.97
2018-09-04T03:15:01.907Z,17.27
2018-09-04T03:17:30.346Z,18.07
2018-09-04T03:19:58.866Z,16.87
2018-09-04T03:22:27.296Z,17.20
2018-09-04T03:24:55.772Z,17.90
2018-09-04T03:27:24.298Z,18.43
2018-09-04T03:29:52.768Z,18.77
2018-09-04T03:32:21.400Z,18.50
2018-09-04T03:34:49.913Z,17.60
2018-09-04T03:37:18.431Z,17.40
2018-09-04T03:39:47.075Z,18.67
2018-09-04T03:42:15.585Z,17.77
2018-09-04T03:44:44.020Z,19.27
2018-09-04T03:47:12.521Z,19.00
2018-09-04T03:49:41.137Z,18.80
2018-09-04T03:52:09.612Z,19.03
2018-09-04T03:54:38.087Z,18.97
2018-09-04T03:57:06.617Z,17.90
2018-09-04T03:59:35.091Z,18.30
2018-09-04T04:02:03.589Z,18.23
2018-09-04T04:04:32.074Z,18.57
2018-09-04T04:07:00.550Z,18.20
2018-09-04T04:09:29.115Z,17.33
2018-09-04T04:11:57.705Z,17.53
2018-09-04T04:14:26.163Z,17.83
2018-09-04T04:16:54.666Z,17.50
2018-09-04T04:19:23.145Z,16.00
2018-09-04T04:21:51.630Z,18.03
2018-09-04T04:24:20.114Z,17.33
2018-09-04T04:26:48.577Z,17.57
2018-09-04T04:29:17.099Z,17.43
2018-09-04T04:31:45.585Z,17.43
2018-09-04T04:34:14.060Z,19.27
2018-09-04T04:36:42.534Z,20.07
2018-09-04T04:39:11.132Z,21.90
2018-09-04T04:41:39.617Z,21.67
2018-09-04T04:44:08.256Z,21.70
2018-09-04T04:46:37.464Z,20.90
2018-09-04T04:49:06.252Z,20.23
2018-09-04T04:51:34.744Z,20.50
2018-09-04T04:54:03.230Z,19.50
2018-09-04T04:56:31.708Z,20.80
2018-09-04T04:59:00.189Z,19.97
2018-09-04T05:01:28.696Z,19.67
2018-09-04T05:03:57.440Z,18.90
2018-09-04T05:06:25.926Z,19.40
2018-09-04T05:08:54.405Z,18.73
2018-09-04T05:11:22.955Z,20.00
2018-09-04T05:13:51.478Z,18.37
2018-09-04T05:16:19.965Z,19.27
2018-09-04T05:18:48.489Z,19.37
2018-09-04T05:21:16.992Z,20.67
2018-09-04T05:23:45.449Z,21.57
2018-09-04T05:26:13.966Z,21.63
2018-09-04T05:28:42.389Z,20.80
2018-09-04T05:31:10.876Z,23.13
2018-09-04T05:33:41.176Z,23.73
2018-09-04T05:36:09.691Z,23.20
2018-09-04T05:38:38.411Z,24.40
2018-09-04T05:41:07.220Z,23.20
2018-09-04T05:43:46.781Z,27.33
2018-09-04T05:46:52.362Z,25.33
2018-09-04T05:49:23.077Z,25.23
2018-09-04T05:51:51.544Z,31.07
2018-09-04T05:54:20.172Z,30.37
2018-09-04T05:56:48.663Z,30.30
2018-09-04T05:59:17.151Z,28.67
2018-09-04T06:01:45.649Z,27.03
2018-09-04T06:04:14.146Z,27.53
2018-09-04T06:06:42.613Z,28.73
2018-09-04T06:09:11.249Z,26.73
2018-09-04T06:11:39.725Z,27.33
2018-09-04T06:14:08.214Z,24.37
2018-09-04T06:16:36.697Z,22.13
2018-09-04T06:19:05.190Z,21.63
2018-09-04T06:21:33.677Z,22.07
2018-09-04T06:24:02.139Z,21.03
2018-09-04T06:26:30.628Z,22.57
2018-09-04T06:28:59.125Z,20.80
2018-09-04T06:31:27.600Z,19.63
2018-09-04T06:33:56.100Z,19.53
2018-09-04T06:36:24.635Z,21.73
2018-09-04T06:38:53.066Z,20.73
2018-09-04T06:41:21.545Z,21.90
2018-09-04T06:43:50.017Z,20.03
2018-09-04T06:46:18.756Z,19.13
2018-09-04T06:48:47.249Z,18.00
2018-09-04T06:51:15.733Z,17.83
2018-09-04T06:53:44.737Z,18.03
2018-09-04T06:56:13.189Z,17.80
2018-09-04T06:58:41.688Z,17.47
2018-09-04T07:01:10.173Z,18.23
2018-09-04T07:03:38.669Z,18.83
2018-09-04T07:06:07.223Z,17.07
2018-09-04T07:08:35.782Z,16.30
2018-09-04T07:11:04.256Z,17.37
2018-09-04T07:13:32.764Z,19.47
2018-09-04T07:16:01.237Z,19.10
2018-09-04T07:18:31.130Z,19.60
2018-09-04T07:20:59.657Z,19.27
2018-09-04T07:23:28.173Z,20.83
2018-09-04T07:25:56.665Z,22.27
2018-09-04T07:28:25.985Z,28.03
2018-09-04T07:30:54.488Z,22.03
2018-09-04T07:33:23.016Z,29.37
2018-09-04T07:35:51.505Z,21.27
2018-09-04T07:38:20.018Z,21.43
2018-09-04T07:40:48.497Z,25.73
2018-09-04T07:43:16.996Z,36.43
2018-09-04T07:45:45.499Z,26.83
2018-09-04T07:48:13.996Z,31.77
2018-09-04T07:50:42.486Z,25.40
2018-09-04T07:53:11.015Z,21.17
2018-09-04T07:55:39.500Z,23.53
2018-09-04T07:58:08.769Z,20.03
2018-09-04T08:00:38.196Z,24.83
2018-09-04T08:03:06.741Z,21.33
2018-09-04T08:05:35.557Z,22.87
2018-09-04T08:08:04.094Z,20.70
2018-09-04T08:10:35.018Z,21.20
2018-09-04T08:13:05.766Z,21.00
2018-09-04T08:15:34.460Z,20.17
2018-09-04T08:18:03.034Z,21.10
2018-09-04T08:20:31.764Z,22.33
2018-09-04T08:23:00.198Z,21.03
2018-09-04T08:25:28.698Z,21.73
2018-09-04T08:27:57.306Z,21.00
2018-09-04T08:30:25.794Z,20.37
2018-09-04T08:32:54.437Z,22.83
2018-09-04T08:35:22.836Z,21.07
2018-09-04T08:37:55.704Z,23.00
2018-09-04T08:40:24.177Z,22.23
2018-09-04T08:42:52.728Z,25.30
2018-09-04T08:45:21.193Z,23.27
2018-09-04T08:47:49.815Z,25.30
2018-09-04T08:50:18.186Z,25.50
2018-09-04T08:52:49.194Z,26.97
2018-09-04T08:55:17.806Z,37.43
2018-09-04T08:57:46.268Z,32.00
2018-09-04T09:00:15.306Z,32.93
2018-09-04T09:02:43.868Z,29.37
2018-09-04T09:05:12.438Z,39.27
2018-09-04T09:07:40.935Z,221.70
2018-09-04T09:10:09.597Z,297.20
2018-09-04T09:12:38.004Z,84.73
2018-09-04T09:15:06.539Z,65.43
2018-09-04T09:17:35.029Z,28.60
2018-09-04T09:20:03.641Z,27.97
2018-09-04T09:22:32.163Z,27.47
2018-09-04T09:25:00.653Z,35.80
2018-09-04T09:27:29.177Z,52.53
2018-09-04T09:29:57.697Z,70.93
2018-09-04T09:32:26.255Z,194.47
2018-09-04T09:34:54.754Z,39.07
2018-09-04T09:37:23.272Z,25.33
2018-09-04T09:39:51.782Z,24.37
2018-09-04T09:42:20.316Z,24.70
2018-09-04T09:44:48.869Z,23.10
2018-09-04T09:47:17.362Z,22.50
2018-09-04T09:49:45.907Z,22.50
2018-09-04T09:52:14.383Z,21.23
2018-09-04T09:54:42.916Z,20.37
2018-09-04T09:57:11.385Z,21.07
2018-09-04T09:59:39.949Z,20.97
2018-09-04T10:02:08.449Z,20.50
2018-09-04T10:04:36.954Z,20.70
2018-09-04T10:07:05.430Z,21.43
2018-09-04T10:09:33.974Z,22.30
2018-09-04T10:12:02.465Z,22.80
2018-09-04T10:14:31.028Z,21.90
2018-09-04T10:17:00.038Z,21.43
2018-09-04T10:19:29.426Z,20.03
2018-09-04T10:21:57.884Z,21.03
2018-09-04T10:24:26.367Z,20.70
2018-09-04T10:26:54.872Z,21.40
2018-09-04T10:29:23.397Z,21.20
2018-09-04T10:31:51.880Z,21.37
2018-09-04T10:34:20.357Z,19.73
2018-09-04T10:36:48.873Z,19.70
2018-09-04T10:39:22.699Z,20.53
2018-09-04T10:41:51.198Z,20.10
2018-09-04T10:44:19.776Z,19.73
2018-09-04T10:46:48.221Z,18.13
2018-09-04T10:49:16.694Z,18.93
2018-09-04T10:51:45.203Z,18.37
2018-09-04T10:54:13.716Z,17.93
2018-09-04T10:56:42.257Z,18.00
2018-09-04T10:59:11.902Z,19.70
2018-09-04T11:01:40.426Z,19.27
2018-09-04T11:04:09.108Z,20.23
2018-09-04T11:06:37.580Z,19.30
2018-09-04T11:09:09.169Z,18.53
2018-09-04T11:11:37.865Z,19.70
2018-09-04T11:14:06.372Z,18.93
2018-09-04T11:16:34.888Z,18.57
2018-09-04T11:19:03.381Z,18.20
2018-09-04T11:21:31.933Z,18.23
2018-09-04T11:24:00.394Z,17.43
2018-09-04T11:26:28.909Z,17.83
2018-09-04T11:28:58.807Z,17.60
2018-09-04T11:31:27.329Z,16.80
2018-09-04T11:33:55.860Z,17.73
2018-09-04T11:36:24.362Z,16.23
2018-09-04T11:38:52.908Z,16.10
2018-09-04T11:41:21.396Z,16.23
2018-09-04T11:43:49.910Z,15.97
2018-09-04T11:46:18.425Z,15.40
2018-09-04T11:48:46.905Z,15.70
2018-09-04T11:51:15.483Z,14.47
2018-09-04T11:53:43.954Z,14.67
2018-09-04T11:56:16.166Z,15.23
2018-09-04T11:58:44.642Z,13.40
2018-09-04T12:01:14.497Z,12.20
2018-09-04T12:03:43.045Z,11.60
2018-09-04T12:06:11.565Z,11.33
2018-09-04T12:08:40.067Z,11.73
2018-09-04T12:11:08.573Z,12.83
2018-09-04T12:13:37.058Z,12.30
2018-09-04T12:16:05.564Z,11.60
2018-09-04T12:18:34.024Z,12.27
2018-09-04T12:21:06.294Z,12.27
2018-09-04T12:23:34.605Z,11.37
2018-09-04T12:26:04.376Z,11.57
2018-09-04T12:28:33.408Z,12.00
2018-09-04T12:31:02.172Z,10.47
2018-09-04T12:33:30.675Z,10.53
2018-09-04T12:35:59.165Z,13.37
2018-09-04T12:38:29.490Z,10.70
2018-09-04T12:40:58.133Z,9.73
2018-09-04T12:43:27.354Z,9.57
2018-09-04T12:45:56.542Z,9.83
2018-09-04T12:48:28.381Z,10.23
2018-09-04T12:50:57.784Z,9.63
2018-09-04T12:53:27.225Z,9.40
2018-09-04T12:55:55.871Z,8.93
2018-09-04T12:58:24.380Z,8.53
2018-09-04T13:00:53.767Z,8.93
2018-09-04T13:03:24.385Z,7.83
2018-09-04T13:05:53.063Z,8.90
2018-09-04T13:08:22.931Z,8.00
2018-09-04T13:10:52.636Z,7.83
2018-09-04T13:13:21.159Z,7.63
2018-09-04T13:15:52.713Z,9.70
2018-09-04T13:18:21.288Z,7.37
2018-09-04T13:20:49.786Z,8.43
2018-09-04T13:23:18.360Z,37.67
2018-09-04T13:25:46.951Z,24.67
2018-09-04T13:28:15.453Z,41.37
2018-09-04T13:30:43.935Z,22.80
2018-09-04T13:33:12.432Z,35.13
2018-09-04T13:35:40.901Z,9.20
2018-09-04T13:38:09.403Z,16.50
2018-09-04T13:40:37.877Z,28.53
2018-09-04T13:43:06.405Z,34.33
2018-09-04T13:45:34.899Z,27.93
2018-09-04T13:48:03.402Z,81.37
2018-09-04T13:50:31.901Z,56.93
2018-09-04T13:53:00.385Z,70.83
2018-09-04T13:55:28.849Z,41.23
2018-09-04T13:57:57.345Z,26.80
2018-09-04T14:00:26.221Z,15.53
2018-09-04T14:02:54.758Z,22.00
2018-09-04T14:05:23.885Z,28.67
2018-09-04T14:07:52.473Z,27.80
2018-09-04T14:10:20.996Z,28.13
2018-09-04T14:12:49.553Z,11.90
2018-09-04T14:15:18.182Z,11.43
2018-09-04T14:17:46.713Z,23.63
2018-09-04T14:20:15.233Z,11.07
2018-09-04T14:22:44.835Z,18.37
2018-09-04T14:25:13.314Z,12.03
2018-09-04T14:27:41.797Z,54.53
2018-09-04T14:30:17.796Z,77.30
2018-09-04T14:32:38.865Z,142.60
2018-09-04T14:35:07.808Z,69.10
2018-09-04T14:37:36.939Z,58.03
2018-09-04T14:40:06.035Z,14.17
2018-09-04T14:42:35.136Z,88.27
2018-09-04T14:45:03.816Z,120.67
2018-09-04T14:47:32.305Z,131.70
2018-09-04T14:50:01.347Z,63.33
2018-09-04T14:52:29.815Z,47.50
2018-09-04T14:54:58.293Z,20.33
2018-09-04T14:57:26.753Z,10.77
2018-09-04T14:59:55.290Z,12.50
2018-09-04T15:02:23.721Z,10.80
2018-09-04T15:04:52.270Z,9.23
2018-09-04T15:07:20.766Z,7.87
2018-09-04T15:09:49.271Z,8.87
2018-09-04T15:12:17.733Z,9.63
2018-09-04T15:14:46.264Z,9.20
2018-09-04T15:17:14.728Z,8.60
2018-09-04T15:19:43.213Z,8.37
2018-09-04T15:22:11.669Z,7.27
2018-09-04T15:24:40.157Z,8.60
2018-09-04T15:27:08.657Z,7.60
2018-09-04T15:29:37.152Z,7.87
2018-09-04T15:32:05.764Z,8.10
2018-09-04T15:34:34.239Z,8.07
2018-09-04T15:37:02.770Z,9.27
2018-09-04T15:39:31.203Z,12.37
2018-09-04T15:41:59.681Z,24.50
2018-09-04T15:44:28.266Z,35.13
2018-09-04T15:46:56.712Z,46.87
2018-09-04T15:49:30.664Z,80.57
2018-09-04T15:51:59.217Z,38.97
2018-09-04T15:54:27.695Z,88.93
2018-09-04T15:56:56.293Z,85.53
2018-09-04T15:59:24.737Z,60.13
2018-09-04T16:01:53.194Z,50.20
2018-09-04T16:04:21.712Z,54.60
2018-09-04T16:06:50.196Z,21.23
2018-09-04T16:09:18.742Z,29.73
2018-09-04T16:11:47.237Z,27.67
2018-09-04T16:14:16.121Z,28.00
2018-09-04T16:16:44.630Z,17.10
2018-09-04T16:19:13.234Z,20.73
2018-09-04T16:21:41.725Z,18.27
2018-09-04T16:24:10.320Z,9.57
2018-09-04T16:26:38.827Z,8.97
2018-09-04T16:29:07.332Z,7.83
2018-09-04T16:31:35.871Z,8.87
2018-09-04T16:34:04.449Z,9.17
2018-09-04T16:36:32.865Z,10.20
2018-09-04T16:39:01.457Z,9.57
2018-09-04T16:41:29.971Z,8.83
2018-09-04T16:43:58.443Z,7.53
2018-09-04T16:46:27.454Z,8.73
2018-09-04T16:48:55.969Z,9.00
2018-09-04T16:51:24.533Z,8.60
2018-09-04T16:53:52.998Z,8.53
2018-09-04T16:56:21.480Z,9.03
2018-09-04T16:58:49.954Z,8.50
2018-09-04T17:01:18.457Z,8.10
2018-09-04T17:03:46.944Z,7.30
2018-09-04T17:06:15.426Z,8.57
2018-09-04T17:08:43.913Z,7.90
2018-09-04T17:11:12.400Z,8.37
2018-09-04T17:13:40.909Z,8.93
2018-09-04T17:16:09.434Z,9.00
2018-09-04T17:18:37.950Z,9.10
2018-09-04T17:21:06.413Z,8.83
2018-09-04T17:23:34.898Z,7.90
2018-09-04T17:26:03.399Z,9.97
2018-09-04T17:28:31.857Z,9.00
2018-09-04T17:31:00.357Z,8.00
2018-09-04T17:33:28.941Z,9.00
2018-09-04T17:35:57.435Z,7.07
2018-09-04T17:38:26.001Z,8.17
2018-09-04T17:40:54.465Z,7.43
2018-09-04T17:43:22.924Z,9.40
2018-09-04T17:45:51.425Z,8.57
2018-09-04T17:48:19.948Z,9.00
2018-09-04T17:50:48.656Z,7.80
2018-09-04T17:53:17.145Z,7.77
2018-09-04T17:55:45.650Z,8.73
2018-09-04T17:58:14.141Z,8.70
2018-09-04T18:00:42.715Z,7.93
2018-09-04T18:03:11.213Z,8.83
2018-09-04T18:05:39.964Z,8.67
2018-09-04T18:08:08.483Z,8.87
2018-09-04T18:10:36.994Z,8.70
2018-09-04T18:13:05.471Z,9.20
2018-09-04T18:15:33.971Z,8.90
2018-09-04T18:18:02.449Z,8.63
2018-09-04T18:20:30.983Z,9.20
2018-09-04T18:22:59.477Z,9.07
2018-09-04T18:25:28.352Z,8.30
2018-09-04T18:27:56.834Z,9.70
2018-09-04T18:30:25.378Z,8.43
2018-09-04T18:32:53.889Z,8.73
2018-09-04T18:35:22.394Z,8.67
2018-09-04T18:37:51.034Z,7.63
2018-09-04T18:40:19.676Z,7.70
2018-09-04T18:42:48.336Z,7.00
2018-09-04T18:45:55.233Z,8.20
2018-09-04T18:48:24.014Z,7.87
2018-09-04T18:50:52.481Z,8.93
2018-09-04T18:53:20.957Z,8.83
2018-09-04T18:55:49.476Z,8.23
2018-09-04T18:58:17.981Z,8.67
2018-09-04T19:00:46.445Z,7.10
2018-09-04T19:03:15.002Z,7.90
2018-09-04T19:05:43.510Z,8.63
2018-09-04T19:08:12.044Z,8.37
2018-09-04T19:10:40.509Z,7.97
2018-09-04T19:13:09.026Z,7.73
2018-09-04T19:15:38.502Z,7.80
2018-09-04T19:18:07.003Z,8.47
2018-09-04T19:20:47.124Z,9.90
2018-09-04T19:23:16.798Z,9.93
2018-09-04T19:25:46.348Z,9.90
2018-09-04T19:28:18.943Z,9.00
2018-09-04T19:30:49.792Z,9.37
2018-09-04T19:33:20.403Z,8.53
2018-09-04T19:35:59.813Z,7.67
2018-09-04T19:38:34.407Z,8.80
2018-09-04T19:41:03.223Z,9.07
2018-09-04T19:43:33.934Z,8.87
2018-09-04T19:46:04.741Z,8.87
2018-09-04T19:48:37.543Z,8.63
2018-09-04T19:51:07.245Z,8.80
2018-09-04T19:53:35.831Z,9.10
2018-09-04T19:56:06.651Z,9.17
2018-09-04T19:58:36.260Z,8.93
2018-09-04T20:01:05.995Z,9.00
2018-09-04T20:03:37.157Z,8.53
2018-09-04T20:06:11.195Z,10.07
2018-09-04T20:08:40.815Z,9.07
2018-09-04T20:11:16.739Z,9.30
2018-09-04T20:13:46.381Z,9.23
2018-09-04T20:16:17.026Z,8.80
2018-09-04T20:18:45.612Z,9.63
2018-09-04T20:21:17.863Z,9.63
2018-09-04T20:23:47.809Z,9.10
2018-09-04T20:26:18.668Z,8.73
2018-09-04T20:28:48.256Z,9.73
2018-09-04T20:31:18.232Z,9.23
2018-09-04T20:33:47.098Z,10.30
2018-09-04T20:36:16.721Z,13.43
2018-09-04T20:38:45.233Z,20.53
2018-09-04T20:41:13.843Z,20.77
2018-09-04T20:43:44.429Z,38.43
2018-09-04T20:46:18.832Z,28.43
2018-09-04T20:48:47.363Z,36.90
2018-09-04T20:51:15.877Z,73.33
2018-09-04T20:53:44.438Z,117.67
2018-09-04T20:56:12.967Z,117.67
2018-09-04T20:58:47.062Z,89.03
2018-09-04T21:01:22.205Z,97.87
2018-09-04T21:03:56.299Z,64.80
2018-09-04T21:06:30.318Z,41.63
2018-09-04T21:09:05.158Z,65.73
2018-09-04T21:11:36.314Z,67.67
2018-09-04T21:14:04.918Z,47.57
2018-09-04T21:16:34.447Z,41.70
2018-09-04T21:19:04.007Z,30.60
2018-09-04T21:21:33.577Z,34.27
2018-09-04T21:24:03.361Z,24.50
2018-09-04T21:26:34.057Z,21.33
2018-09-04T21:29:02.783Z,21.73
2018-09-04T21:31:31.289Z,14.93
2018-09-04T21:34:01.362Z,12.03
2018-09-04T21:36:30.946Z,11.70
2018-09-04T21:39:01.609Z,11.40
2018-09-04T21:41:30.142Z,13.90
2018-09-04T21:43:59.737Z,11.37
2018-09-04T21:46:28.248Z,11.97
2018-09-04T21:48:57.807Z,16.03
2018-09-04T21:51:28.344Z,11.60
2018-09-04T21:53:57.448Z,10.17
2018-09-04T21:56:26.549Z,12.10
2018-09-04T21:58:56.146Z,11.97
2018-09-04T22:01:25.671Z,10.60
2018-09-04T22:03:54.180Z,10.17
2018-09-04T22:06:24.820Z,11.30
2018-09-04T22:08:53.578Z,11.60
2018-09-04T22:11:22.846Z,10.43
2018-09-04T22:13:53.276Z,9.70
2018-09-04T22:16:23.841Z,9.43
2018-09-04T22:18:54.448Z,8.90
2018-09-04T22:21:23.069Z,9.43
2018-09-04T22:23:51.697Z,9.77
2018-09-04T22:26:20.205Z,10.37
2018-09-04T22:28:48.734Z,10.70
2018-09-04T22:31:21.006Z,10.47
2018-09-04T22:33:49.490Z,10.57
2018-09-04T22:36:18.514Z,10.23
2018-09-04T22:38:46.997Z,9.40
2018-09-04T22:41:15.636Z,10.07
2018-09-04T22:43:44.177Z,10.63
2018-09-04T22:46:14.857Z,11.07
2018-09-04T22:48:43.363Z,21.27
2018-09-04T22:51:17.371Z,15.80
2018-09-04T22:53:46.868Z,14.17
2018-09-04T22:56:15.392Z,19.03
2018-09-04T22:58:43.894Z,18.03
2018-09-04T23:01:12.664Z,31.90
2018-09-04T23:03:41.143Z,35.23
2018-09-04T23:06:09.671Z,44.40
2018-09-04T23:08:38.243Z,44.57
2018-09-04T23:11:06.809Z,39.77
2018-09-04T23:13:36.396Z,21.00
2018-09-04T23:16:05.702Z,21.00
2018-09-04T23:18:36.340Z,22.70
2018-09-04T23:21:09.020Z,23.67
2018-09-04T23:23:39.099Z,20.13
2018-09-04T23:26:07.619Z,14.67
2018-09-04T23:28:37.102Z,16.03
2018-09-04T23:31:05.576Z,23.93
2018-09-04T23:33:34.177Z,15.13
2018-09-04T23:36:02.709Z,14.10
2018-09-04T23:38:31.228Z,17.77
2018-09-04T23:41:01.716Z,16.73
2018-09-04T23:43:30.245Z,15.67
2018-09-04T23:45:58.718Z,12.57
2018-09-04T23:48:27.232Z,13.00
2018-09-04T23:50:56.866Z,12.60
2018-09-04T23:53:27.659Z,14.10
2018-09-04T23:55:56.165Z,12.33
2018-09-04T23:58:24.697Z,12.80
